Sturgis, MI

9:04 AM EDT on May 05, 2015 (GMT -0400)
Kirsch Municipal | | Change Station
CLOSE
Current Station
Airport
Location: Sturgis,
Elevation: 925 ft
Nearby Weather Stations

Elev 925 ft 41.82 °N, 85.44 °W | Updated 9 minutes ago

Rain
Rain
57 °F
Feels Like 57 °F
N
7
Wind Variable Wind from East

Today
High -- | Low -- °F
--% Chance of Precip.
Yesterday
High -- | Low -- °F
Precip. -- in
6:33 AM 8:44 PM
Full, 98% visible
Pressure 30.24 in
Visibility 1.2 miles
Clouds Mostly Cloudy 600 ft
Overcast 1200 ft
Dew Point 57 °F
Humidity 100%
Rainfall 0.00 in
Snow Depth Not available.
UV 1 out of 12
Pollen .50 out of 12
Air Quality Not available.
Flu Activity Regional
METAR KIRS 051255Z AUTO 10006KT 1 1/4SM RA BKN006 OVC012 14/14 A3024 RMK AO2

More Conditions Fewer Conditions

Pressure 30.24 in
Visibility 1.2 miles
Clouds Mostly Cloudy 600 ft
Overcast 1200 ft
Dew Point 57 °F
Humidity 100%
Rainfall 0.00 in
Snow Depth Not available.
UV 1 out of 12
Pollen .50 out of 12
Air Quality Not available.
Flu Activity Regional
METAR KIRS 051255Z AUTO 10006KT 1 1/4SM RA BKN006 OVC012 14/14 A3024 RMK AO2

More Conditions Fewer Conditions

Nepal has a long way to go to dig out and rebuild from a devastating earthquake. We have teamed up with several charities and organizations to make contributing to the relief effort as easy as possible.
How you can help: Portlight Strategies | Red Cross

10-Day Weather Forecast

Almanac

Astronomy

May. 05, 2015 Rise Set
Actual Time
Civil Twilight
Nautical Twilight
Astronomical Twilight
Moon
Length of Visible Light
Length of Day
Tomorrow will be .
, % of the Moon is Illuminated

Today's Extremes

State Highs State Lows

Community

WunderPhotos

Upload Photos

1,818,876 photos uploaded!

WunderBlogs® & News

Nearby

Air Quality

  Air Quality AQ Index Pollutant
Not available.

Snow Depth

Station Depth Elevation

Earthquake Activity

City Distance Mag. Time & Date
Minimum magnitude displayed is 2.5.

Coastal Water Temperatures

Place Temperature

Stations

Nearby Weather Stations

Station Location Temp. Windchill Dew Point Humidity Wind Precip. Elev Updated Type